コロンボ の空港の天気 - METARとTAF

バンダラナイケ国際空港 ( VCBI / CMB ) - スリランカ コロンボ
飛行場実況気象(Metar)
観測時間05/29 03:40 IST (05/28 22:10 UTC)
風向・風速南東 3m/s
視程10km以上
天気現象
全天の8割程度の雲 雲底高度 490m
気温26℃
湿度94%
気圧1008hPa
METARVCBI 282210Z 14006KT 120V190 9999 BKN016 26/25 Q1008 NOSIG
過去の天気等 Google飛行場航空写真 Wunderground天気予報

過去48時間のMETAR

飛行場予報(TAF)
発表時間: 5/28 22:30 IST (5/28 17:00 UTC)
予報対象時間: 28日23時 IST ~ 30日5時 IST
風向・風速南西 4m/s
視程10km以上
全天の4割程度の雲 雲底高度 490m
28日23時 IST ~ 29日9時 IST に 確率 40% で一時的に
視程7000m
29日8時 IST ~ 29日10時 IST に徐々に
風向・風速西南西 6m/s 瞬間風速 11m/s
29日18時 IST ~ 29日20時 IST に徐々に
風向・風速南西 5m/s
TAF VCBI 281700Z 2818/2924 23008KT 9999 SCT016 TX31/2907Z TN25/2900Z
PROB40 TEMPO 2818/2904 7000 -TSRA/SHRA BKN015 FEW020CB
BECMG 2903/2905 24012G22KT
BECMG 2913/2915 23010KT